sensor_id;sensor_type;location;lat;lon;timestamp;pressure;altitude;pressure_sealevel;temperature;humidity
10587;BME280;5341;47.606;7.576;2023-07-13T00:00:53;98823.94;;;27.45;45.99
10587;BME280;5341;47.606;7.576;2023-07-13T00:03:22;98820.69;;;27.43;45.81
10587;BME280;5341;47.606;7.576;2023-07-13T00:05:57;98827.28;;;27.42;45.97
10587;BME280;5341;47.606;7.576;2023-07-13T00:08:25;98820.97;;;27.41;46.00
10587;BME280;5341;47.606;7.576;2023-07-13T00:10:55;98831.16;;;27.41;46.21
10587;BME280;5341;47.606;7.576;2023-07-13T00:13:25;98824.84;;;27.40;46.44
10587;BME280;5341;47.606;7.576;2023-07-13T00:15:53;98825.94;;;27.39;46.26
10587;BME280;5341;47.606;7.576;2023-07-13T00:18:22;98819.63;;;27.39;46.04
10587;BME280;5341;47.606;7.576;2023-07-13T00:20:51;98819.63;;;27.39;46.15
10587;BME280;5341;47.606;7.576;2023-07-13T00:23:18;98819.91;;;27.37;46.16
10587;BME280;5341;47.606;7.576;2023-07-13T00:25:45;98823.50;;;27.38;46.20
10587;BME280;5341;47.606;7.576;2023-07-13T00:28:15;98829.81;;;27.38;46.58
10587;BME280;5341;47.606;7.576;2023-07-13T00:30:44;98822.66;;;27.37;46.24
10587;BME280;5341;47.606;7.576;2023-07-13T00:33:13;98828.44;;;27.36;46.18
10587;BME280;5341;47.606;7.576;2023-07-13T00:35:40;98827.09;;;27.33;46.39
10587;BME280;5341;47.606;7.576;2023-07-13T00:38:10;98814.78;;;27.31;46.44
10587;BME280;5341;47.606;7.576;2023-07-13T00:40:37;98822.47;;;27.29;46.26
10587;BME280;5341;47.606;7.576;2023-07-13T00:43:08;98837.31;;;27.28;46.74
10587;BME280;5341;47.606;7.576;2023-07-13T00:46:12;98836.78;;;27.26;46.36
10587;BME280;5341;47.606;7.576;2023-07-13T00:48:42;98824.44;;;27.23;46.61
10587;BME280;5341;47.606;7.576;2023-07-13T00:51:12;98826.66;;;27.21;46.66
10587;BME280;5341;47.606;7.576;2023-07-13T00:53:41;98836.00;;;27.20;46.65
10587;BME280;5341;47.606;7.576;2023-07-13T00:56:09;98836.31;;;27.19;46.44
10587;BME280;5341;47.606;7.576;2023-07-13T00:58:38;98834.66;;;27.18;46.74
10587;BME280;5341;47.606;7.576;2023-07-13T01:01:07;98833.84;;;27.17;46.61
10587;BME280;5341;47.606;7.576;2023-07-13T01:03:36;98834.97;;;27.16;46.84
10587;BME280;5341;47.606;7.576;2023-07-13T01:06:06;98826.72;;;27.16;46.92
10587;BME280;5341;47.606;7.576;2023-07-13T01:08:34;98825.34;;;27.13;46.87
10587;BME280;5341;47.606;7.576;2023-07-13T01:11:02;98824.28;;;27.14;46.88
10587;BME280;5341;47.606;7.576;2023-07-13T01:13:31;98821.78;;;27.13;46.88
10587;BME280;5341;47.606;7.576;2023-07-13T01:16:03;98816.31;;;27.13;46.98
10587;BME280;5341;47.606;7.576;2023-07-13T01:18:31;98819.34;;;27.11;46.70
10587;BME280;5341;47.606;7.576;2023-07-13T01:21:02;98817.69;;;27.10;46.90
10587;BME280;5341;47.606;7.576;2023-07-13T01:23:32;98816.88;;;27.10;46.96
10587;BME280;5341;47.606;7.576;2023-07-13T01:26:00;98813.63;;;27.08;46.95
10587;BME280;5341;47.606;7.576;2023-07-13T01:28:29;98814.72;;;27.07;46.72
10587;BME280;5341;47.606;7.576;2023-07-13T01:30:58;98818.59;;;27.06;47.09
10587;BME280;5341;47.606;7.576;2023-07-13T01:33:27;98820.50;;;27.05;46.83
10587;BME280;5341;47.606;7.576;2023-07-13T01:36:00;98826.28;;;27.04;47.14
10587;BME280;5341;47.606;7.576;2023-07-13T01:38:29;98823.25;;;27.00;46.84
10587;BME280;5341;47.606;7.576;2023-07-13T01:40:57;98821.63;;;26.99;46.94
10587;BME280;5341;47.606;7.576;2023-07-13T01:43:26;98821.91;;;26.98;47.05
10587;BME280;5341;47.606;7.576;2023-07-13T01:45:58;98817.22;;;26.98;46.98
10587;BME280;5341;47.606;7.576;2023-07-13T01:48:25;98806.53;;;26.97;47.11
10587;BME280;5341;47.606;7.576;2023-07-13T01:50:53;98800.53;;;26.95;47.20
10587;BME280;5341;47.606;7.576;2023-07-13T01:53:21;98801.34;;;26.95;47.24
10587;BME280;5341;47.606;7.576;2023-07-13T01:55:49;98798.09;;;26.93;47.04
10587;BME280;5341;47.606;7.576;2023-07-13T01:58:17;98793.69;;;26.92;47.06
10587;BME280;5341;47.606;7.576;2023-07-13T02:00:44;98798.38;;;26.92;47.14
10587;BME280;5341;47.606;7.576;2023-07-13T02:03:11;98805.78;;;26.91;47.09
10587;BME280;5341;47.606;7.576;2023-07-13T02:05:43;98804.16;;;26.90;47.30
10587;BME280;5341;47.606;7.576;2023-07-13T02:08:11;98807.97;;;26.89;47.28
10587;BME280;5341;47.606;7.576;2023-07-13T02:10:40;98805.53;;;26.87;46.97
10587;BME280;5341;47.606;7.576;2023-07-13T02:13:08;98808.56;;;26.86;47.03
10587;BME280;5341;47.606;7.576;2023-07-13T02:15:38;98802.25;;;26.85;47.12
10587;BME280;5341;47.606;7.576;2023-07-13T02:18:07;98803.38;;;26.84;47.03
10587;BME280;5341;47.606;7.576;2023-07-13T02:20:35;98802.84;;;26.82;47.18
10587;BME280;5341;47.606;7.576;2023-07-13T02:23:02;98814.91;;;26.81;47.18
10587;BME280;5341;47.606;7.576;2023-07-13T02:25:30;98810.53;;;26.80;47.56
10587;BME280;5341;47.606;7.576;2023-07-13T02:27:59;98810.00;;;26.78;47.26
10587;BME280;5341;47.606;7.576;2023-07-13T02:30:27;98802.03;;;26.77;47.56
10587;BME280;5341;47.606;7.576;2023-07-13T02:32:55;98809.75;;;26.75;47.44
10587;BME280;5341;47.606;7.576;2023-07-13T02:35:23;98803.72;;;26.73;47.36
10587;BME280;5341;47.606;7.576;2023-07-13T02:37:51;98807.59;;;26.72;47.35
10587;BME280;5341;47.606;7.576;2023-07-13T02:40:19;98810.63;;;26.70;47.47
10587;BME280;5341;47.606;7.576;2023-07-13T02:42:46;98811.72;;;26.69;47.24
10587;BME280;5341;47.606;7.576;2023-07-13T02:45:15;98810.38;;;26.67;47.52
10587;BME280;5341;47.606;7.576;2023-07-13T02:47:43;98808.75;;;26.66;47.42
10587;BME280;5341;47.606;7.576;2023-07-13T02:50:12;98813.66;;;26.64;47.11
10587;BME280;5341;47.606;7.576;2023-07-13T02:52:40;98814.78;;;26.63;47.40
10587;BME280;5341;47.606;7.576;2023-07-13T02:55:12;98814.25;;;26.61;47.22
10587;BME280;5341;47.606;7.576;2023-07-13T02:57:40;98827.16;;;26.60;47.27
10587;BME280;5341;47.606;7.576;2023-07-13T03:00:10;98818.09;;;26.60;47.56
10587;BME280;5341;47.606;7.576;2023-07-13T03:02:39;98806.31;;;26.59;47.18
10587;BME280;5341;47.606;7.576;2023-07-13T03:05:07;98814.00;;;26.57;47.32
10587;BME280;5341;47.606;7.576;2023-07-13T03:07:40;98806.88;;;26.56;47.38
10587;BME280;5341;47.606;7.576;2023-07-13T03:10:09;98808.00;;;26.55;47.34
10587;BME280;5341;47.606;7.576;2023-07-13T03:12:44;98823.63;;;26.54;47.43
10587;BME280;5341;47.606;7.576;2023-07-13T03:15:20;98818.69;;;26.51;47.48
10587;BME280;5341;47.606;7.576;2023-07-13T03:17:52;98816.78;;;26.52;47.48
10587;BME280;5341;47.606;7.576;2023-07-13T03:20:21;98819.81;;;26.50;47.24
10587;BME280;5341;47.606;7.576;2023-07-13T03:22:54;98822.84;;;26.49;47.13
10587;BME280;5341;47.606;7.576;2023-07-13T03:25:24;98823.94;;;26.48;47.43
10587;BME280;5341;47.606;7.576;2023-07-13T03:27:55;98824.22;;;26.46;47.23
10587;BME280;5341;47.606;7.576;2023-07-13T03:30:27;98825.63;;;26.44;47.24
10587;BME280;5341;47.606;7.576;2023-07-13T03:32:59;98825.63;;;26.44;46.97
10587;BME280;5341;47.606;7.576;2023-07-13T03:35:26;98817.94;;;26.41;46.96
10587;BME280;5341;47.606;7.576;2023-07-13T03:37:57;98823.44;;;26.41;46.93
10587;BME280;5341;47.606;7.576;2023-07-13T03:40:26;98820.16;;;26.39;47.04
10587;BME280;5341;47.606;7.576;2023-07-13T03:42:58;98821.25;;;26.38;46.94
10587;BME280;5341;47.606;7.576;2023-07-13T03:45:29;98824.00;;;26.38;47.23
10587;BME280;5341;47.606;7.576;2023-07-13T03:48:01;98831.66;;;26.36;47.16
10587;BME280;5341;47.606;7.576;2023-07-13T03:50:31;98825.38;;;26.35;47.03
10587;BME280;5341;47.606;7.576;2023-07-13T03:53:00;98824.03;;;26.33;46.96
10587;BME280;5341;47.606;7.576;2023-07-13T03:55:27;98825.94;;;26.32;47.10
10587;BME280;5341;47.606;7.576;2023-07-13T03:57:59;98840.47;;;26.33;47.17
10587;BME280;5341;47.606;7.576;2023-07-13T04:00:27;98833.63;;;26.30;46.98
10587;BME280;5341;47.606;7.576;2023-07-13T04:02:54;98841.88;;;26.30;46.78
10587;BME280;5341;47.606;7.576;2023-07-13T04:05:24;98836.63;;;26.28;46.91
10587;BME280;5341;47.606;7.576;2023-07-13T04:07:51;98836.91;;;26.27;47.18
10587;BME280;5341;47.606;7.576;2023-07-13T04:10:19;98843.78;;;26.24;47.19
10587;BME280;5341;47.606;7.576;2023-07-13T04:12:47;98844.09;;;26.23;47.04
10587;BME280;5341;47.606;7.576;2023-07-13T04:15:14;98848.75;;;26.22;47.17
10587;BME280;5341;47.606;7.576;2023-07-13T04:17:42;98856.44;;;26.20;47.26
10587;BME280;5341;47.606;7.576;2023-07-13T04:20:10;98851.25;;;26.19;47.22
10587;BME280;5341;47.606;7.576;2023-07-13T04:22:39;98853.97;;;26.19;47.38
10587;BME280;5341;47.606;7.576;2023-07-13T04:25:07;98854.28;;;26.17;47.01
10587;BME280;5341;47.606;7.576;2023-07-13T04:27:34;98851.78;;;26.16;47.26
10587;BME280;5341;47.606;7.576;2023-07-13T04:30:02;98853.69;;;26.15;47.37
10587;BME280;5341;47.606;7.576;2023-07-13T04:32:29;98851.25;;;26.14;47.18
10587;BME280;5341;47.606;7.576;2023-07-13T04:34:58;98855.91;;;26.13;47.41
10587;BME280;5341;47.606;7.576;2023-07-13T04:37:26;98855.09;;;26.13;47.13
10587;BME280;5341;47.606;7.576;2023-07-13T04:39:56;98865.25;;;26.12;47.50
10587;BME280;5341;47.606;7.576;2023-07-13T04:42:23;98869.91;;;26.12;47.26
10587;BME280;5341;47.606;7.576;2023-07-13T04:44:51;98878.41;;;26.10;47.22
10587;BME280;5341;47.606;7.576;2023-07-13T04:47:19;98883.06;;;26.10;47.42
10587;BME280;5341;47.606;7.576;2023-07-13T04:49:46;98890.47;;;26.09;47.04
10587;BME280;5341;47.606;7.576;2023-07-13T04:52:14;98899.53;;;26.10;47.03
10587;BME280;5341;47.606;7.576;2023-07-13T04:54:41;98900.63;;;26.09;47.01
10587;BME280;5341;47.606;7.576;2023-07-13T04:57:10;98897.59;;;26.10;47.15
10587;BME280;5341;47.606;7.576;2023-07-13T04:59:38;98901.16;;;26.11;47.41
10587;BME280;5341;47.606;7.576;2023-07-13T05:02:05;98899.25;;;26.11;47.22
10587;BME280;5341;47.606;7.576;2023-07-13T05:04:33;98901.97;;;26.11;47.42
10587;BME280;5341;47.606;7.576;2023-07-13T05:07:01;98905.53;;;26.12;47.25
10587;BME280;5341;47.606;7.576;2023-07-13T05:09:28;98910.22;;;26.11;47.34
10587;BME280;5341;47.606;7.576;2023-07-13T05:11:55;98909.91;;;26.13;47.32
10587;BME280;5341;47.606;7.576;2023-07-13T05:14:25;98911.84;;;26.12;47.01
10587;BME280;5341;47.606;7.576;2023-07-13T05:16:52;98914.59;;;26.12;46.90
10587;BME280;5341;47.606;7.576;2023-07-13T05:19:20;98923.63;;;26.13;47.18
10587;BME280;5341;47.606;7.576;2023-07-13T05:21:48;98924.44;;;26.13;47.29
10587;BME280;5341;47.606;7.576;2023-07-13T05:24:15;98922.53;;;26.14;47.02
10587;BME280;5341;47.606;7.576;2023-07-13T05:26:42;98937.88;;;26.15;47.01
10587;BME280;5341;47.606;7.576;2023-07-13T05:29:10;98944.16;;;26.15;47.00
10587;BME280;5341;47.606;7.576;2023-07-13T05:31:40;98944.16;;;26.15;47.29
10587;BME280;5341;47.606;7.576;2023-07-13T05:34:09;98948.56;;;26.16;46.95
10587;BME280;5341;47.606;7.576;2023-07-13T05:36:36;98956.78;;;26.16;46.94
10587;BME280;5341;47.606;7.576;2023-07-13T05:39:04;98955.13;;;26.15;46.70
10587;BME280;5341;47.606;7.576;2023-07-13T05:41:32;98947.72;;;26.16;46.88
10587;BME280;5341;47.606;7.576;2023-07-13T05:44:00;98948.31;;;26.18;46.75
10587;BME280;5341;47.606;7.576;2023-07-13T05:46:29;98949.13;;;26.18;46.72
10587;BME280;5341;47.606;7.576;2023-07-13T05:48:58;98944.16;;;26.20;47.01
10587;BME280;5341;47.606;7.576;2023-07-13T05:51:25;98951.28;;;26.21;46.66
10587;BME280;5341;47.606;7.576;2023-07-13T05:53:53;98953.75;;;26.23;46.63
10587;BME280;5341;47.606;7.576;2023-07-13T05:56:20;98949.09;;;26.23;46.80
10587;BME280;5341;47.606;7.576;2023-07-13T05:58:47;98949.09;;;26.23;47.09
10587;BME280;5341;47.606;7.576;2023-07-13T06:01:15;98950.72;;;26.24;46.80
10587;BME280;5341;47.606;7.576;2023-07-13T06:03:43;98955.38;;;26.24;46.56
10587;BME280;5341;47.606;7.576;2023-07-13T06:06:12;98964.44;;;26.24;46.67
10587;BME280;5341;47.606;7.576;2023-07-13T06:08:40;98960.88;;;26.24;46.55
10587;BME280;5341;47.606;7.576;2023-07-13T06:11:12;98962.78;;;26.23;46.58
10587;BME280;5341;47.606;7.576;2023-07-13T06:13:40;98960.88;;;26.24;46.50
10587;BME280;5341;47.606;7.576;2023-07-13T06:16:08;98958.13;;;26.24;46.37
10587;BME280;5341;47.606;7.576;2023-07-13T06:18:37;98966.34;;;26.24;46.48
10587;BME280;5341;47.606;7.576;2023-07-13T06:21:08;98966.06;;;26.25;46.37
10587;BME280;5341;47.606;7.576;2023-07-13T06:23:37;98967.44;;;26.28;46.30
10587;BME280;5341;47.606;7.576;2023-07-13T06:26:05;98972.38;;;26.31;46.15
10587;BME280;5341;47.606;7.576;2023-07-13T06:28:34;98980.03;;;26.34;46.54
10587;BME280;5341;47.606;7.576;2023-07-13T06:31:04;98975.13;;;26.36;46.65
10587;BME280;5341;47.606;7.576;2023-07-13T06:33:32;98977.28;;;26.39;46.50
10587;BME280;5341;47.606;7.576;2023-07-13T06:36:01;98978.69;;;26.42;46.61
10587;BME280;5341;47.606;7.576;2023-07-13T06:38:29;98981.94;;;26.44;46.38
10587;BME280;5341;47.606;7.576;2023-07-13T06:40:58;98984.13;;;26.47;46.46
10587;BME280;5341;47.606;7.576;2023-07-13T06:43:26;98983.84;;;26.48;46.51
10587;BME280;5341;47.606;7.576;2023-07-13T06:45:55;98979.72;;;26.51;46.16
10587;BME280;5341;47.606;7.576;2023-07-13T06:48:23;98989.03;;;26.55;46.38
10587;BME280;5341;47.606;7.576;2023-07-13T06:50:51;98992.84;;;26.59;46.52
10587;BME280;5341;47.606;7.576;2023-07-13T06:53:20;98996.94;;;26.62;45.95
10587;BME280;5341;47.606;7.576;2023-07-13T06:55:48;98988.72;;;26.67;46.08
10587;BME280;5341;47.606;7.576;2023-07-13T06:58:18;98993.63;;;26.70;45.29
10587;BME280;5341;47.606;7.576;2023-07-13T07:00:46;98998.28;;;26.69;45.29
10587;BME280;5341;47.606;7.576;2023-07-13T07:03:13;99000.47;;;26.72;45.60
10587;BME280;5341;47.606;7.576;2023-07-13T07:05:41;98998.78;;;26.76;45.24
10587;BME280;5341;47.606;7.576;2023-07-13T07:08:08;98998.78;;;26.81;45.26
10587;BME280;5341;47.606;7.576;2023-07-13T07:10:36;98997.63;;;26.87;45.33
10587;BME280;5341;47.606;7.576;2023-07-13T07:13:04;98996.00;;;26.92;45.28
10587;BME280;5341;47.606;7.576;2023-07-13T07:15:34;98986.91;;;26.96;44.56
10587;BME280;5341;47.606;7.576;2023-07-13T07:18:02;98991.50;;;27.01;45.09
10587;BME280;5341;47.606;7.576;2023-07-13T07:20:29;98989.91;;;27.05;43.33
10587;BME280;5341;47.606;7.576;2023-07-13T07:22:58;98989.84;;;27.10;44.11
10587;BME280;5341;47.606;7.576;2023-07-13T07:25:26;98990.66;;;27.15;43.51
10587;BME280;5341;47.606;7.576;2023-07-13T07:27:53;98995.00;;;27.22;43.83
10587;BME280;5341;47.606;7.576;2023-07-13T07:30:20;98993.88;;;27.28;43.76
10587;BME280;5341;47.606;7.576;2023-07-13T07:32:49;98999.84;;;27.35;44.41
10587;BME280;5341;47.606;7.576;2023-07-13T07:35:17;98995.44;;;27.39;42.64
10587;BME280;5341;47.606;7.576;2023-07-13T07:37:44;98996.78;;;27.41;42.14
10587;BME280;5341;47.606;7.576;2023-07-13T07:40:12;99001.94;;;27.48;42.69
10587;BME280;5341;47.606;7.576;2023-07-13T07:42:40;99004.34;;;27.55;42.80
10587;BME280;5341;47.606;7.576;2023-07-13T07:45:08;98996.06;;;27.60;42.68
10587;BME280;5341;47.606;7.576;2023-07-13T07:47:37;98999.88;;;27.69;42.38
10587;BME280;5341;47.606;7.576;2023-07-13T07:50:07;99004.22;;;27.75;42.44
10587;BME280;5341;47.606;7.576;2023-07-13T07:52:34;99005.50;;;27.83;42.97
10587;BME280;5341;47.606;7.576;2023-07-13T07:55:03;99007.63;;;27.91;43.47
10587;BME280;5341;47.606;7.576;2023-07-13T07:57:31;99010.59;;;27.99;42.95
10587;BME280;5341;47.606;7.576;2023-07-13T07:59:58;99016.78;;;28.10;41.94
10587;BME280;5341;47.606;7.576;2023-07-13T08:02:25;99013.94;;;28.20;42.61
10587;BME280;5341;47.606;7.576;2023-07-13T08:04:53;99027.31;;;28.32;41.61
10587;BME280;5341;47.606;7.576;2023-07-13T08:07:22;99018.41;;;28.40;42.04
10587;BME280;5341;47.606;7.576;2023-07-13T08:09:52;99018.31;;;28.50;41.22
10587;BME280;5341;47.606;7.576;2023-07-13T08:12:20;99011.88;;;28.60;40.30
10587;BME280;5341;47.606;7.576;2023-07-13T08:14:50;99016.13;;;28.71;38.96
10587;BME280;5341;47.606;7.576;2023-07-13T08:17:19;99014.03;;;28.82;38.87
10587;BME280;5341;47.606;7.576;2023-07-13T08:19:47;99010.66;;;28.90;39.66
10587;BME280;5341;47.606;7.576;2023-07-13T08:22:15;99018.31;;;28.93;39.33
10587;BME280;5341;47.606;7.576;2023-07-13T08:24:44;99016.16;;;28.90;38.43
10587;BME280;5341;47.606;7.576;2023-07-13T08:27:13;99018.91;;;28.90;38.91
10587;BME280;5341;47.606;7.576;2023-07-13T08:29:40;99013.13;;;28.92;39.32
10587;BME280;5341;47.606;7.576;2023-07-13T08:32:08;99018.09;;;28.89;38.78
10587;BME280;5341;47.606;7.576;2023-07-13T08:34:36;99014.28;;;28.85;39.54
10587;BME280;5341;47.606;7.576;2023-07-13T08:37:04;99014.59;;;28.84;39.25
10587;BME280;5341;47.606;7.576;2023-07-13T08:39:32;99009.91;;;28.84;39.39
10587;BME280;5341;47.606;7.576;2023-07-13T08:42:05;99015.00;;;28.96;38.29
10587;BME280;5341;47.606;7.576;2023-07-13T08:47:33;99007.91;;;29.28;39.03
10587;BME280;5341;47.606;7.576;2023-07-13T08:50:03;99018.09;;;29.46;38.01
10587;BME280;5341;47.606;7.576;2023-07-13T08:52:34;99015.94;;;29.62;36.99
10587;BME280;5341;47.606;7.576;2023-07-13T08:55:09;99018.22;;;29.73;36.59
10587;BME280;5341;47.606;7.576;2023-07-13T08:57:42;99017.25;;;29.83;36.53
10587;BME280;5341;47.606;7.576;2023-07-13T09:00:12;99016.25;;;29.93;37.39
10587;BME280;5341;47.606;7.576;2023-07-13T09:02:45;99013.38;;;29.98;37.36
10587;BME280;5341;47.606;7.576;2023-07-13T09:05:15;99007.06;;;29.97;36.05
10587;BME280;5341;47.606;7.576;2023-07-13T09:07:58;99013.81;;;30.05;36.11
10587;BME280;5341;47.606;7.576;2023-07-13T09:10:32;99008.41;;;30.14;36.54
10587;BME280;5341;47.606;7.576;2023-07-13T09:13:19;99014.16;;;30.17;34.69
10587;BME280;5341;47.606;7.576;2023-07-13T09:15:51;99015.50;;;30.20;35.85
10587;BME280;5341;47.606;7.576;2023-07-13T09:18:26;99021.22;;;30.23;35.12
10587;BME280;5341;47.606;7.576;2023-07-13T09:20:59;99020.22;;;30.33;34.40
10587;BME280;5341;47.606;7.576;2023-07-13T09:23:28;99012.53;;;30.44;34.57
10587;BME280;5341;47.606;7.576;2023-07-13T09:26:01;99018.16;;;30.52;34.33
10587;BME280;5341;47.606;7.576;2023-07-13T09:28:35;99011.09;;;30.60;35.56
10587;BME280;5341;47.606;7.576;2023-07-13T09:31:06;99006.53;;;30.69;34.83
10587;BME280;5341;47.606;7.576;2023-07-13T09:33:34;99009.88;;;30.80;34.69
10587;BME280;5341;47.606;7.576;2023-07-13T09:36:21;99008.31;;;30.87;34.83
10587;BME280;5341;47.606;7.576;2023-07-13T09:38:56;99011.09;;;30.87;35.08
10587;BME280;5341;47.606;7.576;2023-07-13T09:41:31;99008.00;;;30.89;34.25
10587;BME280;5341;47.606;7.576;2023-07-13T09:44:07;99012.94;;;30.92;34.76
10587;BME280;5341;47.606;7.576;2023-07-13T09:46:38;99003.41;;;30.98;35.34
10587;BME280;5341;47.606;7.576;2023-07-13T09:49:09;99006.75;;;31.09;34.29
10587;BME280;5341;47.606;7.576;2023-07-13T09:51:37;99010.72;;;31.30;33.63
10587;BME280;5341;47.606;7.576;2023-07-13T09:54:05;99009.19;;;31.46;34.47
10587;BME280;5341;47.606;7.576;2023-07-13T09:56:32;99006.66;;;31.50;34.01
10587;BME280;5341;47.606;7.576;2023-07-13T09:59:01;99005.22;;;31.61;34.42
10587;BME280;5341;47.606;7.576;2023-07-13T10:01:34;99012.97;;;31.73;33.24
10587;BME280;5341;47.606;7.576;2023-07-13T10:04:02;99007.97;;;31.75;33.70
10587;BME280;5341;47.606;7.576;2023-07-13T10:06:38;99010.94;;;31.78;32.35
10587;BME280;5341;47.606;7.576;2023-07-13T10:09:07;99007.19;;;31.83;33.87
10587;BME280;5341;47.606;7.576;2023-07-13T10:11:36;99013.03;;;32.04;32.81
10587;BME280;5341;47.606;7.576;2023-07-13T10:14:11;99013.88;;;32.13;33.33
10587;BME280;5341;47.606;7.576;2023-07-13T10:16:43;99011.63;;;32.15;33.55
10587;BME280;5341;47.606;7.576;2023-07-13T10:19:14;99011.47;;;32.20;33.00
10587;BME280;5341;47.606;7.576;2023-07-13T10:21:49;99010.72;;;32.28;31.85
10587;BME280;5341;47.606;7.576;2023-07-13T10:24:21;99007.56;;;32.21;31.58
10587;BME280;5341;47.606;7.576;2023-07-13T10:26:54;99016.47;;;32.10;31.60
10587;BME280;5341;47.606;7.576;2023-07-13T10:29:27;99010.97;;;32.18;31.80
10587;BME280;5341;47.606;7.576;2023-07-13T10:31:56;99011.09;;;32.35;31.10
10587;BME280;5341;47.606;7.576;2023-07-13T10:34:24;99014.19;;;32.43;32.74
10587;BME280;5341;47.606;7.576;2023-07-13T10:36:52;99017.13;;;32.46;31.82
10587;BME280;5341;47.606;7.576;2023-07-13T10:39:23;99010.47;;;32.47;31.86
10587;BME280;5341;47.606;7.576;2023-07-13T10:41:54;99010.28;;;32.35;31.24
10587;BME280;5341;47.606;7.576;2023-07-13T10:44:26;99014.31;;;32.29;30.30
10587;BME280;5341;47.606;7.576;2023-07-13T10:46:58;99021.84;;;32.46;31.44
10587;BME280;5341;47.606;7.576;2023-07-13T10:49:28;99013.47;;;32.59;30.93
10587;BME280;5341;47.606;7.576;2023-07-13T10:51:56;99018.38;;;32.71;29.71
10587;BME280;5341;47.606;7.576;2023-07-13T10:54:27;99021.19;;;32.88;28.68
10587;BME280;5341;47.606;7.576;2023-07-13T10:57:17;99024.31;;;32.96;29.17
10587;BME280;5341;47.606;7.576;2023-07-13T11:00:14;99018.38;;;32.80;28.49
10587;BME280;5341;47.606;7.576;2023-07-13T11:02:43;99020.53;;;32.91;28.17
10587;BME280;5341;47.606;7.576;2023-07-13T11:05:29;99021.06;;;33.11;28.01
10587;BME280;5341;47.606;7.576;2023-07-13T11:08:04;99018.28;;;33.19;29.18
10587;BME280;5341;47.606;7.576;2023-07-13T11:10:51;99010.47;;;33.30;28.62
10587;BME280;5341;47.606;7.576;2023-07-13T11:14:01;99011.97;;;33.45;26.64
10587;BME280;5341;47.606;7.576;2023-07-13T11:16:43;99012.63;;;33.59;26.67
10587;BME280;5341;47.606;7.576;2023-07-13T11:19:28;99016.84;;;33.74;26.49
10587;BME280;5341;47.606;7.576;2023-07-13T11:22:15;99010.13;;;33.84;25.31
10587;BME280;5341;47.606;7.576;2023-07-13T11:25:00;99005.88;;;33.95;25.49
10587;BME280;5341;47.606;7.576;2023-07-13T11:27:36;99008.00;;;33.98;25.49
10587;BME280;5341;47.606;7.576;2023-07-13T11:30:09;99002.25;;;34.03;25.03
10587;BME280;5341;47.606;7.576;2023-07-13T11:32:50;98995.06;;;34.02;24.76
10587;BME280;5341;47.606;7.576;2023-07-13T11:35:22;98992.97;;;33.99;24.46
10587;BME280;5341;47.606;7.576;2023-07-13T11:37:51;98996.69;;;34.03;24.32
10587;BME280;5341;47.606;7.576;2023-07-13T11:40:19;98997.22;;;34.05;23.69
10587;BME280;5341;47.606;7.576;2023-07-13T11:42:49;98998.50;;;34.07;24.00
10587;BME280;5341;47.606;7.576;2023-07-13T11:45:19;99007.63;;;34.17;24.90
10587;BME280;5341;47.606;7.576;2023-07-13T11:47:50;99004.25;;;34.41;24.53
10587;BME280;5341;47.606;7.576;2023-07-13T11:50:19;99004.88;;;34.55;24.99
10587;BME280;5341;47.606;7.576;2023-07-13T11:52:49;99001.19;;;34.63;25.16
10587;BME280;5341;47.606;7.576;2023-07-13T11:55:21;99003.72;;;34.77;24.45
10587;BME280;5341;47.606;7.576;2023-07-13T11:57:51;99000.78;;;34.82;23.59
10587;BME280;5341;47.606;7.576;2023-07-13T12:00:23;99008.97;;;34.78;23.51
10587;BME280;5341;47.606;7.576;2023-07-13T12:02:57;99008.81;;;34.75;23.93
10587;BME280;5341;47.606;7.576;2023-07-13T12:05:26;98999.81;;;34.78;22.76
10587;BME280;5341;47.606;7.576;2023-07-13T12:07:55;99010.41;;;34.84;22.58
10587;BME280;5341;47.606;7.576;2023-07-13T12:10:24;99005.50;;;34.90;22.68
10587;BME280;5341;47.606;7.576;2023-07-13T12:12:57;99006.41;;;35.03;23.17
10587;BME280;5341;47.606;7.576;2023-07-13T12:15:32;99005.16;;;35.12;22.47
10587;BME280;5341;47.606;7.576;2023-07-13T12:18:11;99001.50;;;35.20;21.81
10587;BME280;5341;47.606;7.576;2023-07-13T12:20:41;98997.69;;;35.25;22.14
10587;BME280;5341;47.606;7.576;2023-07-13T12:23:18;98992.88;;;35.34;22.89
10587;BME280;5341;47.606;7.576;2023-07-13T12:25:48;98994.34;;;35.40;22.19
10587;BME280;5341;47.606;7.576;2023-07-13T12:28:29;98997.00;;;35.49;22.99
10587;BME280;5341;47.606;7.576;2023-07-13T12:30:59;98993.91;;;35.50;22.68
10587;BME280;5341;47.606;7.576;2023-07-13T12:33:30;98997.47;;;35.39;22.59
10587;BME280;5341;47.606;7.576;2023-07-13T12:36:00;98998.78;;;35.33;21.25
10587;BME280;5341;47.606;7.576;2023-07-13T12:38:30;98996.97;;;35.37;21.64
10587;BME280;5341;47.606;7.576;2023-07-13T12:41:01;98998.75;;;35.41;21.73
10587;BME280;5341;47.606;7.576;2023-07-13T12:43:34;98994.97;;;35.58;20.71
10587;BME280;5341;47.606;7.576;2023-07-13T12:46:14;98993.75;;;35.68;20.31
10587;BME280;5341;47.606;7.576;2023-07-13T12:48:49;98985.97;;;35.73;19.29
10587;BME280;5341;47.606;7.576;2023-07-13T12:51:21;98998.75;;;35.74;19.90
10587;BME280;5341;47.606;7.576;2023-07-13T12:54:06;98995.75;;;35.79;20.39
10587;BME280;5341;47.606;7.576;2023-07-13T12:56:38;98996.16;;;35.90;20.35
10587;BME280;5341;47.606;7.576;2023-07-13T12:59:08;98988.72;;;35.94;20.10
10587;BME280;5341;47.606;7.576;2023-07-13T13:01:42;98983.16;;;35.94;20.74
10587;BME280;5341;47.606;7.576;2023-07-13T13:04:12;98985.63;;;36.08;19.77
10587;BME280;5341;47.606;7.576;2023-07-13T13:06:40;98988.63;;;36.03;19.50
10587;BME280;5341;47.606;7.576;2023-07-13T13:09:11;98987.59;;;36.07;19.95
10587;BME280;5341;47.606;7.576;2023-07-13T13:11:41;98985.41;;;36.13;19.72
10587;BME280;5341;47.606;7.576;2023-07-13T13:14:08;98989.81;;;36.14;19.26
10587;BME280;5341;47.606;7.576;2023-07-13T13:16:44;98989.34;;;36.12;19.69
10587;BME280;5341;47.606;7.576;2023-07-13T13:19:16;98983.91;;;36.16;19.76
10587;BME280;5341;47.606;7.576;2023-07-13T13:21:45;98983.09;;;36.15;20.00
10587;BME280;5341;47.606;7.576;2023-07-13T13:24:15;98984.72;;;36.16;20.22
10587;BME280;5341;47.606;7.576;2023-07-13T13:26:43;98988.41;;;36.20;20.44
10587;BME280;5341;47.606;7.576;2023-07-13T13:29:12;98984.25;;;36.26;20.17